sensor_id;sensor_type;location;lat;lon;timestamp;pressure;altitude;pressure_sealevel;temperature;humidity
6524;BME280;3295;38.928;-77.052;2022-12-24T00:01:04;99923.09;;;-5.07;36.49
6524;BME280;3295;38.928;-77.052;2022-12-24T00:03:32;99891.38;;;-5.10;35.49
6524;BME280;3295;38.928;-77.052;2022-12-24T00:06:03;99902.59;;;-4.87;36.31
6524;BME280;3295;38.928;-77.052;2022-12-24T00:08:31;99916.34;;;-4.82;35.50
6524;BME280;3295;38.928;-77.052;2022-12-24T00:11:00;99916.34;;;-5.51;35.59
6524;BME280;3295;38.928;-77.052;2022-12-24T00:13:27;99914.47;;;-5.28;35.36
6524;BME280;3295;38.928;-77.052;2022-12-24T00:15:57;99904.97;;;-5.49;35.34
6524;BME280;3295;38.928;-77.052;2022-12-24T00:18:25;99923.09;;;-5.50;35.36
6524;BME280;3295;38.928;-77.052;2022-12-24T00:20:52;99937.22;;;-5.58;35.75
6524;BME280;3295;38.928;-77.052;2022-12-24T00:23:21;99923.97;;;-5.41;36.94
6524;BME280;3295;38.928;-77.052;2022-12-24T00:25:48;99939.03;;;-5.48;36.13
6524;BME280;3295;38.928;-77.052;2022-12-24T00:28:16;99937.63;;;-5.70;35.99
6524;BME280;3295;38.928;-77.052;2022-12-24T00:30:44;99944.06;;;-5.73;35.10
6524;BME280;3295;38.928;-77.052;2022-12-24T00:33:14;99966.81;;;-5.94;34.97
6524;BME280;3295;38.928;-77.052;2022-12-24T00:35:41;99967.22;;;-5.98;35.65
6524;BME280;3295;38.928;-77.052;2022-12-24T00:38:09;99974.72;;;-5.89;36.48
6524;BME280;3295;38.928;-77.052;2022-12-24T00:40:37;99979.53;;;-5.91;35.32
6524;BME280;3295;38.928;-77.052;2022-12-24T00:43:05;99990.50;;;-5.89;35.36
6524;BME280;3295;38.928;-77.052;2022-12-24T00:45:33;99999.56;;;-6.14;35.41
6524;BME280;3295;38.928;-77.052;2022-12-24T00:48:01;99994.66;;;-6.05;36.13
6524;BME280;3295;38.928;-77.052;2022-12-24T00:50:30;100004.19;;;-6.50;36.26
6524;BME280;3295;38.928;-77.052;2022-12-24T00:52:58;100001.22;;;-6.05;36.07
6524;BME280;3295;38.928;-77.052;2022-12-24T00:55:26;100009.41;;;-5.98;35.49
6524;BME280;3295;38.928;-77.052;2022-12-24T00:57:54;99993.22;;;-6.27;36.48
6524;BME280;3295;38.928;-77.052;2022-12-24T01:00:22;100007.94;;;-6.04;35.81
6524;BME280;3295;38.928;-77.052;2022-12-24T01:02:49;100012.03;;;-6.05;35.83
6524;BME280;3295;38.928;-77.052;2022-12-24T01:05:18;100003.00;;;-5.96;36.27
6524;BME280;3295;38.928;-77.052;2022-12-24T01:07:47;100011.56;;;-5.68;35.94
6524;BME280;3295;38.928;-77.052;2022-12-24T01:10:18;99992.56;;;-5.67;36.04
6524;BME280;3295;38.928;-77.052;2022-12-24T01:12:48;100011.56;;;-5.59;35.72
6524;BME280;3295;38.928;-77.052;2022-12-24T01:15:18;99998.28;;;-6.10;35.78
6524;BME280;3295;38.928;-77.052;2022-12-24T01:17:47;100003.56;;;-6.07;35.95
6524;BME280;3295;38.928;-77.052;2022-12-24T01:20:16;100012.44;;;-6.09;36.11
6524;BME280;3295;38.928;-77.052;2022-12-24T01:22:44;100024.63;;;-5.95;35.73
6524;BME280;3295;38.928;-77.052;2022-12-24T01:25:14;100039.84;;;-5.92;36.58
6524;BME280;3295;38.928;-77.052;2022-12-24T01:27:41;100033.66;;;-6.04;35.27
6524;BME280;3295;38.928;-77.052;2022-12-24T01:30:12;100042.41;;;-5.99;35.78
6524;BME280;3295;38.928;-77.052;2022-12-24T01:32:41;100048.81;;;-6.01;36.80
6524;BME280;3295;38.928;-77.052;2022-12-24T01:35:09;100051.53;;;-5.91;35.66
6524;BME280;3295;38.928;-77.052;2022-12-24T01:37:37;100053.50;;;-6.04;35.11
6524;BME280;3295;38.928;-77.052;2022-12-24T01:40:09;100053.28;;;-5.90;35.97
6524;BME280;3295;38.928;-77.052;2022-12-24T01:42:59;100052.66;;;-5.96;36.01
6524;BME280;3295;38.928;-77.052;2022-12-24T01:45:46;100055.28;;;-5.86;36.53
6524;BME280;3295;38.928;-77.052;2022-12-24T01:48:27;100066.75;;;-5.70;36.18
6524;BME280;3295;38.928;-77.052;2022-12-24T01:51:03;100064.44;;;-6.26;35.92
6524;BME280;3295;38.928;-77.052;2022-12-24T01:53:34;100073.91;;;-6.06;35.81
6524;BME280;3295;38.928;-77.052;2022-12-24T01:56:04;100077.63;;;-5.86;36.47
6524;BME280;3295;38.928;-77.052;2022-12-24T01:58:35;100072.66;;;-5.86;37.28
6524;BME280;3295;38.928;-77.052;2022-12-24T02:01:03;100080.63;;;-5.73;36.51
6524;BME280;3295;38.928;-77.052;2022-12-24T02:03:31;100083.94;;;-5.81;36.81
6524;BME280;3295;38.928;-77.052;2022-12-24T02:06:00;100082.84;;;-5.67;37.22
6524;BME280;3295;38.928;-77.052;2022-12-24T02:08:28;100088.16;;;-5.55;36.56
6524;BME280;3295;38.928;-77.052;2022-12-24T02:11:15;100088.78;;;-5.49;36.08
6524;BME280;3295;38.928;-77.052;2022-12-24T02:13:49;100085.97;;;-5.52;36.70
6524;BME280;3295;38.928;-77.052;2022-12-24T02:16:26;100096.72;;;-5.36;37.08
6524;BME280;3295;38.928;-77.052;2022-12-24T02:19:00;100095.38;;;-5.41;36.91
6524;BME280;3295;38.928;-77.052;2022-12-24T02:21:47;100107.13;;;-5.64;36.80
6524;BME280;3295;38.928;-77.052;2022-12-24T02:24:27;100123.44;;;-5.99;36.72
6524;BME280;3295;38.928;-77.052;2022-12-24T02:27:18;100123.28;;;-6.01;38.44
6524;BME280;3295;38.928;-77.052;2022-12-24T02:30:10;100125.84;;;-6.32;37.30
6524;BME280;3295;38.928;-77.052;2022-12-24T02:32:48;100136.44;;;-6.02;37.63
6524;BME280;3295;38.928;-77.052;2022-12-24T02:35:24;100132.03;;;-6.04;37.73
6524;BME280;3295;38.928;-77.052;2022-12-24T02:38:02;100131.72;;;-6.07;36.56
6524;BME280;3295;38.928;-77.052;2022-12-24T02:40:35;100136.13;;;-6.05;38.97
6524;BME280;3295;38.928;-77.052;2022-12-24T02:43:09;100132.72;;;-5.90;37.27
6524;BME280;3295;38.928;-77.052;2022-12-24T02:45:42;100128.75;;;-6.12;36.30
6524;BME280;3295;38.928;-77.052;2022-12-24T02:48:14;100146.97;;;-6.20;36.93
6524;BME280;3295;38.928;-77.052;2022-12-24T02:50:55;100156.00;;;-6.36;37.81
6524;BME280;3295;38.928;-77.052;2022-12-24T02:53:23;100167.59;;;-6.28;38.16
6524;BME280;3295;38.928;-77.052;2022-12-24T02:56:04;100171.13;;;-6.26;37.18
6524;BME280;3295;38.928;-77.052;2022-12-24T02:58:43;100167.03;;;-6.10;37.83
6524;BME280;3295;38.928;-77.052;2022-12-24T03:01:21;100176.50;;;-6.30;36.70
6524;BME280;3295;38.928;-77.052;2022-12-24T03:04:00;100180.72;;;-6.14;37.70
6524;BME280;3295;38.928;-77.052;2022-12-24T03:06:38;100163.78;;;-5.93;37.67
6524;BME280;3295;38.928;-77.052;2022-12-24T03:09:17;100168.22;;;-5.82;38.00
6524;BME280;3295;38.928;-77.052;2022-12-24T03:11:53;100172.50;;;-5.73;37.36
6524;BME280;3295;38.928;-77.052;2022-12-24T03:14:23;100172.84;;;-5.94;37.58
6524;BME280;3295;38.928;-77.052;2022-12-24T03:16:54;100189.53;;;-6.56;36.56
6524;BME280;3295;38.928;-77.052;2022-12-24T03:19:23;100194.09;;;-6.20;38.47
6524;BME280;3295;38.928;-77.052;2022-12-24T03:21:54;100205.63;;;-6.36;38.58
6524;BME280;3295;38.928;-77.052;2022-12-24T03:24:23;100200.34;;;-6.71;38.88
6524;BME280;3295;38.928;-77.052;2022-12-24T03:26:51;100208.00;;;-6.61;37.41
6524;BME280;3295;38.928;-77.052;2022-12-24T03:29:20;100206.72;;;-6.41;38.56
6524;BME280;3295;38.928;-77.052;2022-12-24T03:31:49;100214.75;;;-6.60;36.90
6524;BME280;3295;38.928;-77.052;2022-12-24T03:34:19;100225.84;;;-6.40;38.45
6524;BME280;3295;38.928;-77.052;2022-12-24T03:36:47;100229.56;;;-6.21;38.22
6524;BME280;3295;38.928;-77.052;2022-12-24T03:39:16;100202.66;;;-6.57;37.85
6524;BME280;3295;38.928;-77.052;2022-12-24T03:41:44;100244.06;;;-6.17;38.11
6524;BME280;3295;38.928;-77.052;2022-12-24T03:44:12;100239.53;;;-6.28;37.63
6524;BME280;3295;38.928;-77.052;2022-12-24T03:46:40;100236.91;;;-6.46;36.95
6524;BME280;3295;38.928;-77.052;2022-12-24T03:49:08;100245.13;;;-6.54;38.45
6524;BME280;3295;38.928;-77.052;2022-12-24T03:51:38;100237.53;;;-6.71;37.88
6524;BME280;3295;38.928;-77.052;2022-12-24T03:54:05;100230.13;;;-6.78;38.02
6524;BME280;3295;38.928;-77.052;2022-12-24T03:56:33;100251.97;;;-6.67;38.54
6524;BME280;3295;38.928;-77.052;2022-12-24T03:59:01;100260.00;;;-6.54;39.60
6524;BME280;3295;38.928;-77.052;2022-12-24T04:01:29;100268.97;;;-6.63;37.96
6524;BME280;3295;38.928;-77.052;2022-12-24T04:03:57;100274.03;;;-6.77;38.61
6524;BME280;3295;38.928;-77.052;2022-12-24T04:06:25;100271.56;;;-6.77;38.52
6524;BME280;3295;38.928;-77.052;2022-12-24T04:08:54;100268.16;;;-6.93;38.44
6524;BME280;3295;38.928;-77.052;2022-12-24T04:11:24;100275.47;;;-6.79;38.38
6524;BME280;3295;38.928;-77.052;2022-12-24T04:13:52;100275.13;;;-6.82;39.44
6524;BME280;3295;38.928;-77.052;2022-12-24T04:16:19;100285.03;;;-6.82;39.33
6524;BME280;3295;38.928;-77.052;2022-12-24T04:18:47;100281.09;;;-6.96;39.44
6524;BME280;3295;38.928;-77.052;2022-12-24T04:21:15;100288.06;;;-7.07;39.27
6524;BME280;3295;38.928;-77.052;2022-12-24T04:23:43;100297.84;;;-6.86;39.97
6524;BME280;3295;38.928;-77.052;2022-12-24T04:26:14;100299.81;;;-6.68;39.98
6524;BME280;3295;38.928;-77.052;2022-12-24T04:28:42;100286.69;;;-6.67;39.73
6524;BME280;3295;38.928;-77.052;2022-12-24T04:31:12;100291.00;;;-6.73;39.81
6524;BME280;3295;38.928;-77.052;2022-12-24T04:33:40;100300.38;;;-6.93;38.62
6524;BME280;3295;38.928;-77.052;2022-12-24T04:36:11;100299.13;;;-7.20;39.68
6524;BME280;3295;38.928;-77.052;2022-12-24T04:38:39;100293.19;;;-7.29;40.56
6524;BME280;3295;38.928;-77.052;2022-12-24T04:41:11;100298.13;;;-7.29;39.78
6524;BME280;3295;38.928;-77.052;2022-12-24T04:43:41;100309.28;;;-7.25;39.92
6524;BME280;3295;38.928;-77.052;2022-12-24T04:46:11;100309.59;;;-7.22;40.91
6524;BME280;3295;38.928;-77.052;2022-12-24T04:48:44;100303.66;;;-7.08;40.41
6524;BME280;3295;38.928;-77.052;2022-12-24T04:51:12;100303.09;;;-7.29;40.01
6524;BME280;3295;38.928;-77.052;2022-12-24T04:53:41;100300.69;;;-7.43;41.45
6524;BME280;3295;38.928;-77.052;2022-12-24T04:56:11;100312.41;;;-7.19;41.39
6524;BME280;3295;38.928;-77.052;2022-12-24T04:58:41;100299.03;;;-7.05;40.56
6524;BME280;3295;38.928;-77.052;2022-12-24T05:01:13;100326.91;;;-7.15;39.57
6524;BME280;3295;38.928;-77.052;2022-12-24T05:03:42;100327.88;;;-7.36;39.84
6524;BME280;3295;38.928;-77.052;2022-12-24T05:06:11;100332.03;;;-7.13;40.08
6524;BME280;3295;38.928;-77.052;2022-12-24T05:08:39;100340.53;;;-7.19;39.60
6524;BME280;3295;38.928;-77.052;2022-12-24T05:11:08;100336.06;;;-7.44;39.76
6524;BME280;3295;38.928;-77.052;2022-12-24T05:13:41;100336.34;;;-7.27;40.13
6524;BME280;3295;38.928;-77.052;2022-12-24T05:16:09;100340.34;;;-7.13;40.53
6524;BME280;3295;38.928;-77.052;2022-12-24T05:18:37;100330.97;;;-7.15;40.14
6524;BME280;3295;38.928;-77.052;2022-12-24T05:21:07;100337.06;;;-7.28;40.38
6524;BME280;3295;38.928;-77.052;2022-12-24T05:23:36;100336.19;;;-7.28;39.70
6524;BME280;3295;38.928;-77.052;2022-12-24T05:26:26;100346.53;;;-7.17;41.15
6524;BME280;3295;38.928;-77.052;2022-12-24T05:28:58;100345.47;;;-7.11;41.28
6524;BME280;3295;38.928;-77.052;2022-12-24T05:31:27;100349.81;;;-7.02;40.46
6524;BME280;3295;38.928;-77.052;2022-12-24T05:33:56;100353.22;;;-7.08;39.58
6524;BME280;3295;38.928;-77.052;2022-12-24T05:36:24;100354.59;;;-7.03;40.25
6524;BME280;3295;38.928;-77.052;2022-12-24T05:38:52;100356.16;;;-7.27;39.80
6524;BME280;3295;38.928;-77.052;2022-12-24T05:41:20;100356.91;;;-7.35;40.13
6524;BME280;3295;38.928;-77.052;2022-12-24T05:43:48;100363.13;;;-7.08;40.10
6524;BME280;3295;38.928;-77.052;2022-12-24T05:46:19;100373.28;;;-7.65;39.12
6524;BME280;3295;38.928;-77.052;2022-12-24T05:48:48;100376.22;;;-7.98;40.18
6524;BME280;3295;38.928;-77.052;2022-12-24T05:51:17;100365.25;;;-8.00;40.96
6524;BME280;3295;38.928;-77.052;2022-12-24T05:53:45;100359.19;;;-7.73;40.95
6524;BME280;3295;38.928;-77.052;2022-12-24T05:56:15;100356.66;;;-7.52;41.30
6524;BME280;3295;38.928;-77.052;2022-12-24T05:58:43;100354.47;;;-7.42;41.44
6524;BME280;3295;38.928;-77.052;2022-12-24T06:01:12;100357.75;;;-7.71;40.78
6524;BME280;3295;38.928;-77.052;2022-12-24T06:03:42;100363.81;;;-7.91;41.22
6524;BME280;3295;38.928;-77.052;2022-12-24T06:06:11;100376.81;;;-7.63;41.52
6524;BME280;3295;38.928;-77.052;2022-12-24T06:08:40;100381.59;;;-7.58;41.11
6524;BME280;3295;38.928;-77.052;2022-12-24T06:11:11;100382.13;;;-7.60;40.12
6524;BME280;3295;38.928;-77.052;2022-12-24T06:13:40;100382.66;;;-7.63;40.37
6524;BME280;3295;38.928;-77.052;2022-12-24T06:16:09;100379.28;;;-7.63;40.45
6524;BME280;3295;38.928;-77.052;2022-12-24T06:18:37;100375.41;;;-7.61;40.81
6524;BME280;3295;38.928;-77.052;2022-12-24T06:21:07;100373.94;;;-7.45;41.30
6524;BME280;3295;38.928;-77.052;2022-12-24T06:23:38;100388.53;;;-7.69;39.65
6524;BME280;3295;38.928;-77.052;2022-12-24T06:26:07;100402.72;;;-7.97;39.64
6524;BME280;3295;38.928;-77.052;2022-12-24T06:28:36;100392.84;;;-7.97;38.96
6524;BME280;3295;38.928;-77.052;2022-12-24T06:31:05;100397.03;;;-7.81;39.98
6524;BME280;3295;38.928;-77.052;2022-12-24T06:33:34;100394.25;;;-7.99;42.40
6524;BME280;3295;38.928;-77.052;2022-12-24T06:36:02;100378.63;;;-7.76;41.76
6524;BME280;3295;38.928;-77.052;2022-12-24T06:38:34;100388.84;;;-7.59;40.46
6524;BME280;3295;38.928;-77.052;2022-12-24T06:41:05;100388.50;;;-7.62;40.24
6524;BME280;3295;38.928;-77.052;2022-12-24T06:43:33;100408.81;;;-7.58;39.98
6524;BME280;3295;38.928;-77.052;2022-12-24T06:46:04;100428.81;;;-7.56;40.30
6524;BME280;3295;38.928;-77.052;2022-12-24T06:48:32;100432.00;;;-7.57;40.39
6524;BME280;3295;38.928;-77.052;2022-12-24T06:51:01;100428.00;;;-8.13;40.86
6524;BME280;3295;38.928;-77.052;2022-12-24T06:53:29;100406.59;;;-8.06;40.65
6524;BME280;3295;38.928;-77.052;2022-12-24T06:56:02;100413.31;;;-7.91;40.72
6524;BME280;3295;38.928;-77.052;2022-12-24T06:58:30;100419.81;;;-7.77;41.00
6524;BME280;3295;38.928;-77.052;2022-12-24T07:01:00;100429.78;;;-7.98;39.86
6524;BME280;3295;38.928;-77.052;2022-12-24T07:03:28;100442.69;;;-7.94;40.43
6524;BME280;3295;38.928;-77.052;2022-12-24T07:05:56;100445.16;;;-8.43;39.88
6524;BME280;3295;38.928;-77.052;2022-12-24T07:08:24;100449.72;;;-8.75;40.32
6524;BME280;3295;38.928;-77.052;2022-12-24T07:10:52;100449.56;;;-8.55;40.96
6524;BME280;3295;38.928;-77.052;2022-12-24T07:13:22;100450.81;;;-8.23;41.67
6524;BME280;3295;38.928;-77.052;2022-12-24T07:15:56;100444.09;;;-8.17;41.59
6524;BME280;3295;38.928;-77.052;2022-12-24T07:18:25;100435.78;;;-8.17;41.71
6524;BME280;3295;38.928;-77.052;2022-12-24T07:20:52;100434.00;;;-8.04;41.37
6524;BME280;3295;38.928;-77.052;2022-12-24T07:23:20;100445.31;;;-7.99;40.88
6524;BME280;3295;38.928;-77.052;2022-12-24T07:25:48;100450.81;;;-7.95;40.83
6524;BME280;3295;38.928;-77.052;2022-12-24T07:28:16;100451.81;;;-7.78;40.87
6524;BME280;3295;38.928;-77.052;2022-12-24T07:30:47;100455.00;;;-7.72;40.15
6524;BME280;3295;38.928;-77.052;2022-12-24T07:33:15;100456.78;;;-7.85;40.31
6524;BME280;3295;38.928;-77.052;2022-12-24T07:35:42;100470.41;;;-8.25;39.77
6524;BME280;3295;38.928;-77.052;2022-12-24T07:38:10;100465.47;;;-8.46;41.74
6524;BME280;3295;38.928;-77.052;2022-12-24T07:40:38;100460.34;;;-8.12;41.62
6524;BME280;3295;38.928;-77.052;2022-12-24T07:43:06;100458.91;;;-8.17;41.05
6524;BME280;3295;38.928;-77.052;2022-12-24T07:45:34;100467.94;;;-8.10;41.25
6524;BME280;3295;38.928;-77.052;2022-12-24T07:48:03;100466.19;;;-7.97;41.12
6524;BME280;3295;38.928;-77.052;2022-12-24T07:50:31;100472.69;;;-8.05;40.61
6524;BME280;3295;38.928;-77.052;2022-12-24T07:52:59;100470.91;;;-7.92;41.64
6524;BME280;3295;38.928;-77.052;2022-12-24T07:55:27;100470.22;;;-7.83;41.03
6524;BME280;3295;38.928;-77.052;2022-12-24T07:57:55;100470.59;;;-7.80;40.16
6524;BME280;3295;38.928;-77.052;2022-12-24T08:00:23;100468.63;;;-7.76;40.89
6524;BME280;3295;38.928;-77.052;2022-12-24T08:02:53;100474.44;;;-7.75;40.30
6524;BME280;3295;38.928;-77.052;2022-12-24T08:05:23;100476.59;;;-7.93;40.77
6524;BME280;3295;38.928;-77.052;2022-12-24T08:07:50;100488.25;;;-8.27;40.51
6524;BME280;3295;38.928;-77.052;2022-12-24T08:10:18;100482.47;;;-8.35;41.66
6524;BME280;3295;38.928;-77.052;2022-12-24T08:12:46;100489.88;;;-8.06;41.58
6524;BME280;3295;38.928;-77.052;2022-12-24T08:15:15;100480.50;;;-7.95;41.18
6524;BME280;3295;38.928;-77.052;2022-12-24T08:17:43;100500.63;;;-8.06;40.79
6524;BME280;3295;38.928;-77.052;2022-12-24T08:20:11;100503.28;;;-7.90;40.78
6524;BME280;3295;38.928;-77.052;2022-12-24T08:22:42;100499.22;;;-7.82;40.59
6524;BME280;3295;38.928;-77.052;2022-12-24T08:25:10;100504.16;;;-8.04;40.07
6524;BME280;3295;38.928;-77.052;2022-12-24T08:27:38;100502.72;;;-8.44;41.09
6524;BME280;3295;38.928;-77.052;2022-12-24T08:30:07;100491.81;;;-8.11;41.44
6524;BME280;3295;38.928;-77.052;2022-12-24T08:32:35;100500.25;;;-8.44;41.43
6524;BME280;3295;38.928;-77.052;2022-12-24T08:35:04;100513.34;;;-8.24;41.64
6524;BME280;3295;38.928;-77.052;2022-12-24T08:37:32;100514.25;;;-8.09;41.68
6524;BME280;3295;38.928;-77.052;2022-12-24T08:40:01;100501.69;;;-8.11;41.83
6524;BME280;3295;38.928;-77.052;2022-12-24T08:42:29;100501.50;;;-8.05;42.05
6524;BME280;3295;38.928;-77.052;2022-12-24T08:44:57;100500.97;;;-8.03;41.77
6524;BME280;3295;38.928;-77.052;2022-12-24T08:47:25;100509.28;;;-8.38;42.75
6524;BME280;3295;38.928;-77.052;2022-12-24T08:49:53;100513.53;;;-8.15;41.94
6524;BME280;3295;38.928;-77.052;2022-12-24T08:52:20;100517.22;;;-8.40;40.79
6524;BME280;3295;38.928;-77.052;2022-12-24T08:54:48;100515.44;;;-8.63;41.58
6524;BME280;3295;38.928;-77.052;2022-12-24T08:57:18;100514.59;;;-8.35;42.13
6524;BME280;3295;38.928;-77.052;2022-12-24T08:59:46;100516.19;;;-8.14;41.97
6524;BME280;3295;38.928;-77.052;2022-12-24T09:02:14;100515.47;;;-8.20;41.78
6524;BME280;3295;38.928;-77.052;2022-12-24T09:04:41;100537.91;;;-8.11;42.14
6524;BME280;3295;38.928;-77.052;2022-12-24T09:07:10;100533.88;;;-7.97;41.86
6524;BME280;3295;38.928;-77.052;2022-12-24T09:09:37;100545.84;;;-8.14;41.53
6524;BME280;3295;38.928;-77.052;2022-12-24T09:12:06;100541.63;;;-8.22;40.95
6524;BME280;3295;38.928;-77.052;2022-12-24T09:14:36;100538.78;;;-8.32;41.21
6524;BME280;3295;38.928;-77.052;2022-12-24T09:17:04;100540.16;;;-8.55;40.66
6524;BME280;3295;38.928;-77.052;2022-12-24T09:19:32;100548.34;;;-8.35;41.71
6524;BME280;3295;38.928;-77.052;2022-12-24T09:22:00;100551.84;;;-8.19;40.91
6524;BME280;3295;38.928;-77.052;2022-12-24T09:24:27;100557.53;;;-8.13;40.76
6524;BME280;3295;38.928;-77.052;2022-12-24T09:26:55;100562.47;;;-8.34;40.75
6524;BME280;3295;38.928;-77.052;2022-12-24T09:29:24;100555.06;;;-8.34;41.45
6524;BME280;3295;38.928;-77.052;2022-12-24T09:31:53;100557.09;;;-8.58;41.05
6524;BME280;3295;38.928;-77.052;2022-12-24T09:34:22;100568.28;;;-8.41;41.04
6524;BME280;3295;38.928;-77.052;2022-12-24T09:36:50;100555.94;;;-8.89;40.68
6524;BME280;3295;38.928;-77.052;2022-12-24T09:39:19;100571.94;;;-8.51;41.61
6524;BME280;3295;38.928;-77.052;2022-12-24T09:41:52;100574.50;;;-8.71;41.17
6524;BME280;3295;38.928;-77.052;2022-12-24T09:44:33;100581.13;;;-8.50;42.00
6524;BME280;3295;38.928;-77.052;2022-12-24T09:47:08;100556.81;;;-9.15;40.23
6524;BME280;3295;38.928;-77.052;2022-12-24T09:49:41;100578.88;;;-8.83;41.61
6524;BME280;3295;38.928;-77.052;2022-12-24T09:52:12;100565.19;;;-8.59;41.44
6524;BME280;3295;38.928;-77.052;2022-12-24T09:54:44;100559.03;;;-8.97;41.52
6524;BME280;3295;38.928;-77.052;2022-12-24T09:57:22;100577.09;;;-8.84;42.36
6524;BME280;3295;38.928;-77.052;2022-12-24T09:59:52;100576.09;;;-8.72;42.39
6524;BME280;3295;38.928;-77.052;2022-12-24T10:02:23;100582.16;;;-8.55;42.26
6524;BME280;3295;38.928;-77.052;2022-12-24T10:04:50;100575.88;;;-8.39;42.10
6524;BME280;3295;38.928;-77.052;2022-12-24T10:07:28;100571.81;;;-8.39;41.95
6524;BME280;3295;38.928;-77.052;2022-12-24T10:10:04;100581.13;;;-8.50;41.91
6524;BME280;3295;38.928;-77.052;2022-12-24T10:12:44;100576.72;;;-8.87;41.40
6524;BME280;3295;38.928;-77.052;2022-12-24T10:15:23;100595.16;;;-8.71;41.65
6524;BME280;3295;38.928;-77.052;2022-12-24T10:18:05;100593.78;;;-8.69;42.89
6524;BME280;3295;38.928;-77.052;2022-12-24T10:20:41;100585.41;;;-8.83;42.83
6524;BME280;3295;38.928;-77.052;2022-12-24T10:23:16;100591.69;;;-8.58;42.54
6524;BME280;3295;38.928;-77.052;2022-12-24T10:25:52;100597.00;;;-8.55;41.51
6524;BME280;3295;38.928;-77.052;2022-12-24T10:28:30;100607.94;;;-8.94;41.01
6524;BME280;3295;38.928;-77.052;2022-12-24T10:31:02;100616.56;;;-8.98;42.61
6524;BME280;3295;38.928;-77.052;2022-12-24T10:33:36;100619.59;;;-8.93;42.47
6524;BME280;3295;38.928;-77.052;2022-12-24T10:36:08;100620.56;;;-8.79;42.22
6524;BME280;3295;38.928;-77.052;2022-12-24T10:38:38;100622.03;;;-8.67;41.96
6524;BME280;3295;38.928;-77.052;2022-12-24T10:41:07;100636.22;;;-8.51;41.79
6524;BME280;3295;38.928;-77.052;2022-12-24T10:43:35;100635.28;;;-8.66;40.91
6524;BME280;3295;38.928;-77.052;2022-12-24T10:46:06;100628.88;;;-8.71;40.63
6524;BME280;3295;38.928;-77.052;2022-12-24T10:48:43;100620.34;;;-8.46;41.23
6524;BME280;3295;38.928;-77.052;2022-12-24T10:51:16;100626.91;;;-8.33;40.84
6524;BME280;3295;38.928;-77.052;2022-12-24T10:53:48;100627.34;;;-8.64;40.51
6524;BME280;3295;38.928;-77.052;2022-12-24T10:56:19;100633.25;;;-8.49;40.46
6524;BME280;3295;38.928;-77.052;2022-12-24T10:58:51;100635.59;;;-8.36;39.97
6524;BME280;3295;38.928;-77.052;2022-12-24T11:01:20;100623.91;;;-8.37;40.96
6524;BME280;3295;38.928;-77.052;2022-12-24T11:04:00;100620.72;;;-8.43;40.77
6524;BME280;3295;38.928;-77.052;2022-12-24T11:06:29;100627.03;;;-8.52;41.13
6524;BME280;3295;38.928;-77.052;2022-12-24T11:09:12;100641.19;;;-8.44;40.63
6524;BME280;3295;38.928;-77.052;2022-12-24T11:11:46;100630.97;;;-8.47;40.72
6524;BME280;3295;38.928;-77.052;2022-12-24T11:14:16;100647.94;;;-8.29;40.15
6524;BME280;3295;38.928;-77.052;2022-12-24T11:16:50;100648.31;;;-8.26;40.00
6524;BME280;3295;38.928;-77.052;2022-12-24T11:19:25;100647.25;;;-8.35;40.58
6524;BME280;3295;38.928;-77.052;2022-12-24T11:21:58;100642.97;;;-8.43;40.22
6524;BME280;3295;38.928;-77.052;2022-12-24T11:24:29;100655.97;;;-8.58;40.20
6524;BME280;3295;38.928;-77.052;2022-12-24T11:27:23;100670.13;;;-8.50;40.80
6524;BME280;3295;38.928;-77.052;2022-12-24T11:33:14;100661.13;;;-9.11;39.76
6524;BME280;3295;38.928;-77.052;2022-12-24T11:35:45;100658.25;;;-8.94;42.19
6524;BME280;3295;38.928;-77.052;2022-12-24T11:38:19;100666.44;;;-8.81;40.89
6524;BME280;3295;38.928;-77.052;2022-12-24T11:40:49;100666.63;;;-9.06;40.60
6524;BME280;3295;38.928;-77.052;2022-12-24T11:43:23;100680.84;;;-8.91;41.11
6524;BME280;3295;38.928;-77.052;2022-12-24T11:46:34;100684.19;;;-8.64;40.90
6524;BME280;3295;38.928;-77.052;2022-12-24T11:49:16;100684.53;;;-8.61;40.46
6524;BME280;3295;38.928;-77.052;2022-12-24T11:55:09;100694.44;;;-8.87;40.89
6524;BME280;3295;38.928;-77.052;2022-12-24T11:57:49;100695.88;;;-8.55;41.27
6524;BME280;3295;38.928;-77.052;2022-12-24T12:00:18;100697.28;;;-8.57;40.60
6524;BME280;3295;38.928;-77.052;2022-12-24T12:02:49;100693.22;;;-8.91;40.14
6524;BME280;3295;38.928;-77.052;2022-12-24T12:05:20;100697.09;;;-8.86;40.17
6524;BME280;3295;38.928;-77.052;2022-12-24T12:07:52;100700.44;;;-8.66;40.33
6524;BME280;3295;38.928;-77.052;2022-12-24T12:10:24;100703.91;;;-8.71;40.19
6524;BME280;3295;38.928;-77.052;2022-12-24T12:12:59;100700.50;;;-8.51;39.85
6524;BME280;3295;38.928;-77.052;2022-12-24T12:15:32;100700.91;;;-9.02;39.78
6524;BME280;3295;38.928;-77.052;2022-12-24T12:18:06;100702.22;;;-9.11;40.22
6524;BME280;3295;38.928;-77.052;2022-12-24T12:20:37;100695.72;;;-8.84;40.07
6524;BME280;3295;38.928;-77.052;2022-12-24T12:23:13;100710.91;;;-8.81;40.50
6524;BME280;3295;38.928;-77.052;2022-12-24T12:25:45;100715.97;;;-8.59;40.60
6524;BME280;3295;38.928;-77.052;2022-12-24T12:28:20;100716.34;;;-8.64;40.45
6524;BME280;3295;38.928;-77.052;2022-12-24T12:30:59;100716.41;;;-9.03;40.17
6524;BME280;3295;38.928;-77.052;2022-12-24T12:33:34;100716.84;;;-9.13;40.19
6524;BME280;3295;38.928;-77.052;2022-12-24T12:36:04;100723.88;;;-9.36;41.02
6524;BME280;3295;38.928;-77.052;2022-12-24T12:38:35;100728.44;;;-9.19;42.41
6524;BME280;3295;38.928;-77.052;2022-12-24T12:41:14;100729.59;;;-8.83;41.78
6524;BME280;3295;38.928;-77.052;2022-12-24T12:46:51;100731.94;;;-8.77;40.70
6524;BME280;3295;38.928;-77.052;2022-12-24T12:49:30;100736.34;;;-9.02;41.57
6524;BME280;3295;38.928;-77.052;2022-12-24T12:52:09;100728.63;;;-8.71;41.81
6524;BME280;3295;38.928;-77.052;2022-12-24T12:54:51;100719.50;;;-8.65;40.83
6524;BME280;3295;38.928;-77.052;2022-12-24T12:57:26;100737.41;;;-8.80;40.07
6524;BME280;3295;38.928;-77.052;2022-12-24T12:59:58;100731.09;;;-8.71;39.91
6524;BME280;3295;38.928;-77.052;2022-12-24T13:02:51;100735.81;;;-8.52;41.09
6524;BME280;3295;38.928;-77.052;2022-12-24T13:05:48;100732.31;;;-8.47;40.11
6524;BME280;3295;38.928;-77.052;2022-12-24T13:09:00;100736.19;;;-8.49;39.64
6524;BME280;3295;38.928;-77.052;2022-12-24T13:11:42;100742.66;;;-8.23;39.96
6524;BME280;3295;38.928;-77.052;2022-12-24T13:14:27;100756.09;;;-8.21;39.37
6524;BME280;3295;38.928;-77.052;2022-12-24T13:17:24;100752.25;;;-8.12;38.97
6524;BME280;3295;38.928;-77.052;2022-12-24T13:20:13;100763.53;;;-8.14;38.79
6524;BME280;3295;38.928;-77.052;2022-12-24T13:22:48;100748.69;;;-8.14;38.53